createdAt,value
2022-09-20T00:01:51.109Z,101613.41
2022-09-20T00:04:22.909Z,101613.41
2022-09-20T00:06:56.050Z,101622.22
2022-09-20T00:09:24.730Z,101620.47
2022-09-20T00:11:53.400Z,101625.69
2022-09-20T00:14:22.080Z,101624.13
2022-09-20T00:16:50.781Z,101628.53
2022-09-20T00:19:21.694Z,101628.41
2022-09-20T00:21:51.838Z,101619.75
2022-09-20T00:24:24.468Z,101626.75
2022-09-20T00:26:53.348Z,101621.56
2022-09-20T00:29:22.159Z,101615.56
2022-09-20T00:31:52.697Z,101622.41
2022-09-20T00:34:38.539Z,101621.72
2022-09-20T00:37:07.229Z,101624.28
2022-09-20T00:39:39.119Z,101629.66
2022-09-20T00:42:08.509Z,101629.56
2022-09-20T00:44:52.588Z,101627.03
2022-09-20T00:47:28.184Z,101636.56
2022-09-20T00:50:01.718Z,101634.88
2022-09-20T00:52:31.820Z,101634.09
2022-09-20T00:55:02.809Z,101634.16
2022-09-20T00:57:36.598Z,101637.53
2022-09-20T01:00:08.909Z,101634.22
2022-09-20T01:02:41.720Z,101630.75
2022-09-20T01:05:14.008Z,101636.69
2022-09-20T01:07:49.162Z,101636.84
2022-09-20T01:10:19.449Z,101644.63
2022-09-20T01:12:49.768Z,101642.22
2022-09-20T01:15:19.349Z,101647.31
2022-09-20T01:17:52.263Z,101643.00
2022-09-20T01:20:24.719Z,101646.53
2022-09-20T01:23:15.218Z,101642.22
2022-09-20T01:26:17.350Z,101646.66
2022-09-20T01:28:49.438Z,101652.66
2022-09-20T01:31:22.028Z,101643.13
2022-09-20T01:33:55.809Z,101647.53
2022-09-20T01:36:28.422Z,101651.81
2022-09-20T01:39:07.687Z,101650.97
2022-09-20T01:41:40.908Z,101648.47
2022-09-20T01:44:19.049Z,101644.16
2022-09-20T01:46:54.749Z,101644.16
2022-09-20T01:49:36.999Z,101640.66
2022-09-20T01:52:44.860Z,101639.69
2022-09-20T01:55:39.678Z,101638.97
2022-09-20T01:58:26.525Z,101642.38
2022-09-20T02:01:22.809Z,101642.38
2022-09-20T02:04:28.150Z,101632.91
2022-09-20T02:07:18.358Z,101632.94
2022-09-20T02:10:15.790Z,101636.31
2022-09-20T02:12:57.118Z,101636.34
2022-09-20T02:15:48.779Z,101630.31
2022-09-20T02:18:41.841Z,101629.56
2022-09-20T02:21:24.410Z,101633.81
2022-09-20T02:24:02.959Z,101629.56
2022-09-20T02:26:43.869Z,101629.56
2022-09-20T02:29:29.729Z,101626.94
2022-09-20T02:32:15.059Z,101624.38
2022-09-20T02:35:21.409Z,101614.84
2022-09-20T02:38:09.859Z,101607.94
2022-09-20T02:41:04.399Z,101616.66
2022-09-20T02:43:48.689Z,101614.97
2022-09-20T02:46:25.978Z,101606.28
2022-09-20T02:49:04.400Z,101607.22
2022-09-20T02:51:41.499Z,101601.19
2022-09-20T02:54:22.868Z,101606.34
2022-09-20T02:57:03.517Z,101598.56
2022-09-20T02:59:42.048Z,101589.88
2022-09-20T03:02:21.581Z,101593.38
2022-09-20T03:05:06.518Z,101600.34
2022-09-20T03:07:56.363Z,101601.09
2022-09-20T03:10:34.534Z,101587.41
2022-09-20T03:13:19.328Z,101592.53
2022-09-20T03:15:59.450Z,101600.47
2022-09-20T03:18:39.989Z,101595.28
2022-09-20T03:21:22.858Z,101591.78
2022-09-20T03:24:06.202Z,101584.97
2022-09-20T03:26:51.260Z,101583.97
2022-09-20T03:29:33.289Z,101580.66
2022-09-20T03:32:15.307Z,101585.03
2022-09-20T03:34:55.670Z,101576.41
2022-09-20T03:37:45.409Z,101573.78
2022-09-20T03:40:51.101Z,101582.44
2022-09-20T03:43:31.279Z,101582.56
2022-09-20T03:46:22.808Z,101572.94
2022-09-20T03:49:42.208Z,101568.69
2022-09-20T03:52:28.118Z,101567.94
2022-09-20T03:55:20.270Z,101563.59
2022-09-20T03:58:01.059Z,101573.88
2022-09-20T04:00:49.191Z,101573.91
2022-09-20T04:03:33.281Z,101573.16
2022-09-20T04:06:15.108Z,101566.19
2022-09-20T04:09:12.988Z,101566.28
2022-09-20T04:11:52.509Z,101566.34
2022-09-20T04:14:39.264Z,101566.34
2022-09-20T04:17:29.418Z,101561.25
2022-09-20T04:20:07.369Z,101568.19
2022-09-20T04:22:37.290Z,101565.56
2022-09-20T04:25:18.288Z,101548.28
2022-09-20T04:27:53.689Z,101558.75
2022-09-20T04:30:28.110Z,101558.00
2022-09-20T04:33:02.612Z,101561.25
2022-09-20T04:36:12.839Z,101563.00
2022-09-20T04:38:45.648Z,101561.50
2022-09-20T04:41:34.290Z,101565.97
2022-09-20T04:44:23.912Z,101564.97
2022-09-20T04:47:45.209Z,101565.88
2022-09-20T04:50:57.858Z,101568.63
2022-09-20T04:53:52.949Z,101571.25
2022-09-20T04:56:35.109Z,101581.66
2022-09-20T04:59:10.529Z,101580.00
2022-09-20T05:02:23.233Z,101584.41
2022-09-20T05:05:28.418Z,101588.78
2022-09-20T05:08:42.889Z,101591.41
2022-09-20T05:11:52.989Z,101584.53
2022-09-20T05:14:41.210Z,101581.19
2022-09-20T05:17:23.728Z,101574.25
2022-09-20T05:20:17.248Z,101578.63
2022-09-20T05:23:14.608Z,101585.53
2022-09-20T05:26:12.551Z,101583.84
2022-09-20T05:28:55.108Z,101578.75
2022-09-20T05:31:35.853Z,101576.97
2022-09-20T05:34:14.588Z,101578.84
2022-09-20T05:36:57.948Z,101578.03
2022-09-20T05:39:36.685Z,101576.22
2022-09-20T05:42:16.470Z,101574.56
2022-09-20T05:44:59.479Z,101579.81
2022-09-20T05:47:40.368Z,101582.47
2022-09-20T05:50:28.590Z,101587.66
2022-09-20T05:53:05.038Z,101583.53
2022-09-20T05:55:54.443Z,101587.91
2022-09-20T05:58:45.268Z,101587.78
2022-09-20T06:01:22.172Z,101591.44
2022-09-20T06:03:57.088Z,101589.72
2022-09-20T06:06:32.926Z,101590.56
2022-09-20T06:09:15.929Z,101601.00
2022-09-20T06:12:05.628Z,101590.63
2022-09-20T06:14:45.358Z,101597.69
2022-09-20T06:17:23.839Z,101594.31
2022-09-20T06:20:02.508Z,101602.06
2022-09-20T06:22:35.639Z,101611.66
2022-09-20T06:25:14.129Z,101616.09
2022-09-20T06:27:49.749Z,101611.84
2022-09-20T06:30:31.569Z,101616.94
2022-09-20T06:33:02.114Z,101621.41
2022-09-20T06:35:38.716Z,101624.00
2022-09-20T06:38:43.324Z,101624.00
2022-09-20T06:41:31.227Z,101620.59
2022-09-20T06:44:01.069Z,101624.00
2022-09-20T06:46:34.570Z,101620.72
2022-09-20T06:49:03.771Z,101624.13
2022-09-20T06:51:37.118Z,101623.34
2022-09-20T06:54:11.699Z,101625.09
2022-09-20T06:56:42.549Z,101627.59
2022-09-20T06:59:15.720Z,101627.34
2022-09-20T07:01:46.016Z,101624.88
2022-09-20T07:04:15.118Z,101631.84
2022-09-20T07:06:43.729Z,101627.59
2022-09-20T07:09:13.378Z,101626.75
2022-09-20T07:11:45.708Z,101628.41
2022-09-20T07:14:14.458Z,101628.41
2022-09-20T07:16:45.306Z,101627.53
2022-09-20T07:19:15.369Z,101621.91
2022-09-20T07:21:46.179Z,101619.25
2022-09-20T07:24:15.558Z,101621.91
2022-09-20T07:26:57.434Z,101620.19
2022-09-20T07:29:28.753Z,101619.31
2022-09-20T07:31:59.365Z,101622.69
2022-09-20T07:34:28.259Z,101608.81
2022-09-20T07:37:00.008Z,101611.22
2022-09-20T07:39:28.961Z,101613.84
2022-09-20T07:41:57.837Z,101624.25
2022-09-20T07:44:28.780Z,101618.22
2022-09-20T07:47:00.755Z,101622.47
2022-09-20T07:49:31.492Z,101613.84
2022-09-20T07:52:00.430Z,101618.03
2022-09-20T07:54:29.259Z,101620.72
2022-09-20T07:56:59.228Z,101616.56
2022-09-20T07:59:27.978Z,101627.91
2022-09-20T08:01:57.950Z,101620.19
2022-09-20T08:04:30.954Z,101626.25
2022-09-20T08:07:02.038Z,101630.66
2022-09-20T08:09:32.089Z,101624.50
2022-09-20T08:14:05.260Z,101630.56
2022-09-20T08:14:56.170Z,101639.34
2022-09-20T08:17:25.009Z,101635.00
2022-09-20T08:20:02.509Z,101642.78
2022-09-20T08:22:35.380Z,101634.88
2022-09-20T08:25:04.068Z,101635.06
2022-09-20T08:27:32.699Z,101639.50
2022-09-20T08:30:01.488Z,101641.88
2022-09-20T08:32:30.201Z,101635.75
2022-09-20T08:35:00.878Z,101628.66
2022-09-20T08:37:29.609Z,101626.97
2022-09-20T08:39:59.283Z,101632.09
2022-09-20T08:42:34.938Z,101625.22
2022-09-20T08:45:21.852Z,101625.81
2022-09-20T08:47:58.524Z,101640.31
2022-09-20T08:50:33.310Z,101632.47
2022-09-20T08:53:05.341Z,101634.91
2022-09-20T08:55:40.598Z,101634.97
2022-09-20T08:58:13.829Z,101633.09
2022-09-20T09:00:45.429Z,101634.78
2022-09-20T09:03:17.193Z,101637.44
2022-09-20T09:05:52.219Z,101625.31
2022-09-20T09:08:24.938Z,101626.28
2022-09-20T09:10:57.348Z,101633.09
2022-09-20T09:13:32.309Z,101627.88
2022-09-20T09:16:06.844Z,101627.88
2022-09-20T09:18:41.848Z,101622.56
2022-09-20T09:21:20.232Z,101625.06
2022-09-20T09:23:54.989Z,101635.25
2022-09-20T09:26:25.249Z,101629.22
2022-09-20T09:29:20.918Z,101632.56
2022-09-20T09:31:55.398Z,101633.31
2022-09-20T09:34:29.112Z,101632.38
2022-09-20T09:37:04.320Z,101635.00
2022-09-20T09:39:35.970Z,101634.88
2022-09-20T09:42:24.548Z,101635.00
2022-09-20T09:44:53.219Z,101632.31
2022-09-20T09:47:29.154Z,101635.72
2022-09-20T09:50:05.033Z,101640.69
2022-09-20T09:52:39.159Z,101642.31
2022-09-20T09:55:08.719Z,101646.63
2022-09-20T09:57:52.310Z,101643.09
2022-09-20T10:00:22.922Z,101641.09
2022-09-20T10:03:27.991Z,101648.78
2022-09-20T10:06:10.458Z,101641.81
2022-09-20T10:08:49.809Z,101642.66
2022-09-20T10:11:30.830Z,101647.03
2022-09-20T10:14:15.138Z,101648.66
2022-09-20T10:16:59.239Z,101642.53
2022-09-20T10:19:45.449Z,101652.06
2022-09-20T10:22:19.849Z,101639.81
2022-09-20T10:24:58.280Z,101639.06
2022-09-20T10:27:45.170Z,101643.28
2022-09-20T10:30:18.709Z,101638.94
2022-09-20T10:33:00.128Z,101643.13
2022-09-20T10:35:35.458Z,101642.06
2022-09-20T10:38:15.738Z,101644.38
2022-09-20T10:41:18.459Z,101637.38
2022-09-20T10:44:05.886Z,101638.13
2022-09-20T10:46:49.738Z,101642.31
2022-09-20T10:49:36.941Z,101636.16
2022-09-20T10:52:31.968Z,101641.25
2022-09-20T10:55:28.608Z,101641.25
2022-09-20T10:58:14.730Z,101641.97
2022-09-20T11:00:49.047Z,101642.06
2022-09-20T11:03:36.109Z,101635.09
2022-09-20T11:06:17.950Z,101630.53
2022-09-20T11:08:51.995Z,101635.66
2022-09-20T11:11:24.868Z,101627.81
2022-09-20T11:14:01.938Z,101633.84
2022-09-20T11:16:42.108Z,101627.69
2022-09-20T11:19:20.258Z,101629.53
2022-09-20T11:21:59.099Z,101625.16
2022-09-20T11:24:34.918Z,101633.72
2022-09-20T11:27:16.020Z,101631.94
2022-09-20T11:29:52.408Z,101622.38
2022-09-20T11:32:27.828Z,101612.84
2022-09-20T11:34:59.039Z,101614.53
2022-09-20T11:37:37.169Z,101620.56
2022-09-20T11:40:21.212Z,101617.84
2022-09-20T11:42:51.539Z,101613.47
2022-09-20T11:45:27.559Z,101615.19
2022-09-20T11:48:03.369Z,101612.56
2022-09-20T11:50:53.358Z,101616.88
2022-09-20T11:53:40.731Z,101609.94
2022-09-20T11:56:21.033Z,101608.31
2022-09-20T11:58:51.753Z,101607.47
2022-09-20T12:01:28.926Z,101609.81
2022-09-20T12:04:21.023Z,101603.69
2022-09-20T12:06:58.679Z,101613.13
2022-09-20T12:09:32.638Z,101609.59
2022-09-20T12:12:16.098Z,101607.91
2022-09-20T12:15:00.361Z,101601.72
2022-09-20T12:18:21.129Z,101607.81
2022-09-20T12:21:16.707Z,101600.78
2022-09-20T12:24:04.019Z,101602.56
2022-09-20T12:26:58.729Z,101604.25
2022-09-20T12:29:59.360Z,101606.44
2022-09-20T12:32:56.638Z,101600.16
2022-09-20T12:35:58.640Z,101601.78
2022-09-20T12:38:38.729Z,101601.56
2022-09-20T12:41:11.119Z,101597.13
2022-09-20T12:43:49.869Z,101598.66
2022-09-20T12:46:25.932Z,101598.56
2022-09-20T12:49:40.591Z,101589.72
2022-09-20T12:52:43.919Z,101599.22
2022-09-20T12:55:27.859Z,101597.44
2022-09-20T12:57:58.768Z,101592.19
2022-09-20T13:00:38.298Z,101581.72
2022-09-20T13:03:25.119Z,101574.69
2022-09-20T13:06:26.279Z,101580.19
2022-09-20T13:09:04.550Z,101590.50
2022-09-20T13:11:40.150Z,101575.72
2022-09-20T13:14:14.179Z,101577.41
2022-09-20T13:16:55.529Z,101576.28
2022-09-20T13:19:30.023Z,101576.34
2022-09-20T13:22:03.069Z,101577.13
2022-09-20T13:24:35.969Z,101574.50
2022-09-20T13:27:11.070Z,101576.03
2022-09-20T13:29:43.980Z,101575.09
2022-09-20T13:32:26.588Z,101573.34
2022-09-20T13:35:08.708Z,101576.81
2022-09-20T13:37:44.058Z,101573.50
2022-09-20T13:40:22.350Z,101576.81
2022-09-20T13:43:19.666Z,101576.81
2022-09-20T13:45:48.486Z,101573.34
2022-09-20T13:48:18.590Z,101575.75
2022-09-20T13:50:53.623Z,101574.81
2022-09-20T13:53:40.510Z,101571.16
2022-09-20T13:56:16.388Z,101572.00
2022-09-20T13:58:46.698Z,101569.22
2022-09-20T14:01:29.528Z,101565.69
2022-09-20T14:04:04.759Z,101562.84
2022-09-20T14:06:34.108Z,101555.66
2022-09-20T14:09:11.502Z,101558.50
2022-09-20T14:11:41.730Z,101563.25
2022-09-20T14:14:21.332Z,101561.38
2022-09-20T14:16:53.708Z,101555.22
2022-09-20T14:19:28.919Z,101563.09
2022-09-20T14:22:00.382Z,101555.22
2022-09-20T14:24:35.884Z,101558.69
2022-09-20T14:27:20.250Z,101556.91
2022-09-20T14:29:51.509Z,101552.50
2022-09-20T14:32:31.329Z,101541.00
2022-09-20T14:35:07.051Z,101542.78
2022-09-20T14:37:36.801Z,101546.09
2022-09-20T14:40:18.136Z,101537.31
2022-09-20T14:42:49.158Z,101540.91
2022-09-20T14:45:27.749Z,101531.47
2022-09-20T14:48:00.339Z,101534.94
2022-09-20T14:50:31.529Z,101531.38
2022-09-20T14:53:30.259Z,101530.44
2022-09-20T14:56:11.658Z,101521.34
2022-09-20T14:59:09.531Z,101529.50
2022-09-20T15:01:42.968Z,101526.88
2022-09-20T15:04:21.429Z,101522.63
2022-09-20T15:06:50.688Z,101527.19
2022-09-20T15:09:21.339Z,101524.50
2022-09-20T15:12:01.239Z,101522.72
2022-09-20T15:14:37.181Z,101525.34
2022-09-20T15:17:08.789Z,101525.88
2022-09-20T15:19:39.119Z,101519.09
2022-09-20T15:22:08.849Z,101515.78
2022-09-20T15:24:37.619Z,101515.53
2022-09-20T15:27:06.600Z,101516.00
2022-09-20T15:29:35.289Z,101510.75
2022-09-20T15:32:06.109Z,101517.38
2022-09-20T15:34:38.229Z,101512.72
2022-09-20T15:37:08.058Z,101513.91
2022-09-20T15:39:38.398Z,101507.44
2022-09-20T15:42:07.563Z,101510.06
2022-09-20T15:44:36.458Z,101516.63
2022-09-20T15:47:05.449Z,101505.34
2022-09-20T15:49:35.668Z,101506.34
2022-09-20T15:52:05.562Z,101507.03
2022-09-20T15:54:34.259Z,101507.91
2022-09-20T15:57:05.258Z,101514.53
2022-09-20T15:59:34.798Z,101501.16
2022-09-20T16:02:03.758Z,101502.03
2022-09-20T16:04:33.899Z,101498.00
2022-09-20T16:07:06.521Z,101499.47
2022-09-20T16:09:36.413Z,101502.50
2022-09-20T16:12:05.448Z,101502.50
2022-09-20T16:14:38.558Z,101509.44
2022-09-20T16:17:07.540Z,101505.72
2022-09-20T16:19:38.298Z,101506.56
2022-09-20T16:22:19.681Z,101508.34
2022-09-20T16:24:49.708Z,101501.56
2022-09-20T16:27:18.638Z,101511.81
2022-09-20T16:29:47.789Z,101508.06
2022-09-20T16:32:16.611Z,101510.91
2022-09-20T16:34:45.858Z,101509.31
2022-09-20T16:37:26.806Z,101506.84
2022-09-20T16:39:57.219Z,101506.00
2022-09-20T16:42:27.018Z,101503.47
2022-09-20T16:44:55.818Z,101509.56
2022-09-20T16:47:27.470Z,101496.97
2022-09-20T16:49:56.734Z,101501.41
2022-09-20T16:52:30.699Z,101506.03
2022-09-20T16:54:59.640Z,101501.06
2022-09-20T16:57:29.173Z,101504.41
2022-09-20T17:00:00.658Z,101511.22
2022-09-20T17:02:31.908Z,101504.47
2022-09-20T17:05:00.853Z,101505.31
2022-09-20T17:07:33.959Z,101507.13
2022-09-20T17:10:02.979Z,101501.28
2022-09-20T17:12:34.249Z,101508.66
2022-09-20T17:15:07.159Z,101508.47
2022-09-20T17:17:36.160Z,101517.97
2022-09-20T17:20:06.298Z,101514.09
2022-09-20T17:22:36.471Z,101522.28
2022-09-20T17:25:05.428Z,101513.91
2022-09-20T17:27:34.260Z,101509.84
2022-09-20T17:30:03.038Z,101507.00
2022-09-20T17:32:37.423Z,101510.38
2022-09-20T17:35:07.289Z,101506.53
2022-09-20T17:37:39.189Z,101507.72
2022-09-20T17:40:11.703Z,101510.66
2022-09-20T17:42:40.938Z,101515.22
2022-09-20T17:45:15.294Z,101513.38
2022-09-20T17:47:47.101Z,101518.69
2022-09-20T17:50:15.870Z,101518.00
2022-09-20T17:52:47.339Z,101520.72
2022-09-20T17:55:17.144Z,101523.56
2022-09-20T17:57:47.959Z,101525.50
2022-09-20T18:00:16.868Z,101524.66
2022-09-20T18:02:47.969Z,101520.56
2022-09-20T18:05:16.889Z,101523.97
2022-09-20T18:07:49.269Z,101514.63
2022-09-20T18:10:17.948Z,101518.88
2022-09-20T18:12:48.398Z,101519.03
2022-09-20T18:15:17.669Z,101517.31
2022-09-20T18:17:46.409Z,101520.88
2022-09-20T18:20:15.248Z,101522.72
2022-09-20T18:22:44.201Z,101521.97
2022-09-20T18:25:14.489Z,101523.81
2022-09-20T18:27:43.590Z,101523.03
2022-09-20T18:30:12.990Z,101524.91
2022-09-20T18:32:44.689Z,101529.50
2022-09-20T18:35:16.869Z,101538.31
2022-09-20T18:37:46.836Z,101530.59
2022-09-20T18:40:17.131Z,101532.53
2022-09-20T18:42:45.829Z,101537.84
2022-09-20T18:45:17.848Z,101534.38
2022-09-20T18:47:49.551Z,101539.56
2022-09-20T18:50:18.329Z,101530.97
2022-09-20T18:52:47.759Z,101535.44
2022-09-20T18:55:18.460Z,101536.41
2022-09-20T18:57:48.629Z,101537.34
2022-09-20T19:00:18.079Z,101529.66
2022-09-20T19:03:09.464Z,101534.75
2022-09-20T19:05:45.179Z,101537.50
2022-09-20T19:08:27.359Z,101525.41
2022-09-20T19:11:02.474Z,101533.31
2022-09-20T19:13:39.918Z,101536.03
2022-09-20T19:16:21.006Z,101536.09
2022-09-20T19:19:11.499Z,101538.84
2022-09-20T19:21:47.359Z,101542.25
2022-09-20T19:24:26.568Z,101540.56
2022-09-20T19:26:57.128Z,101532.03
2022-09-20T19:29:27.649Z,101541.72
2022-09-20T19:31:57.828Z,101544.28
2022-09-20T19:34:32.151Z,101540.78
2022-09-20T19:37:18.892Z,101550.41
2022-09-20T19:40:09.211Z,101548.03
2022-09-20T19:42:53.474Z,101553.13
2022-09-20T19:45:31.624Z,101549.72
2022-09-20T19:48:13.032Z,101555.81
2022-09-20T19:50:46.605Z,101556.66
2022-09-20T19:53:17.231Z,101558.56
2022-09-20T19:55:52.194Z,101563.66
2022-09-20T19:58:24.499Z,101562.13
2022-09-20T20:00:54.060Z,101564.75
2022-09-20T20:03:26.440Z,101573.31
2022-09-20T20:06:04.542Z,101562.97
2022-09-20T20:08:45.389Z,101570.00
2022-09-20T20:11:34.400Z,101576.06
2022-09-20T20:14:15.619Z,101571.81
2022-09-20T20:16:57.309Z,101571.97
2022-09-20T20:19:47.781Z,101578.97
2022-09-20T20:22:30.039Z,101571.25
2022-09-20T20:24:59.279Z,101579.13
2022-09-20T20:27:29.529Z,101575.75
2022-09-20T20:30:02.439Z,101573.13
2022-09-20T20:32:31.074Z,101563.66
2022-09-20T20:35:01.900Z,101576.59
2022-09-20T20:37:32.440Z,101567.81
2022-09-20T20:40:04.573Z,101566.25
2022-09-20T20:42:35.729Z,101568.88
2022-09-20T20:45:07.604Z,101564.53
2022-09-20T20:47:38.934Z,101566.31
2022-09-20T20:50:08.349Z,101572.34
2022-09-20T20:52:37.138Z,101570.66
2022-09-20T20:55:08.350Z,101569.78
2022-09-20T20:57:38.289Z,101561.88
2022-09-20T21:00:10.145Z,101566.13
2022-09-20T21:03:00.126Z,101566.16
2022-09-20T21:05:30.914Z,101568.09
2022-09-20T21:07:59.725Z,101568.19
2022-09-20T21:10:29.565Z,101562.06
2022-09-20T21:12:58.154Z,101561.06
2022-09-20T21:15:28.254Z,101562.84
2022-09-20T21:17:56.905Z,101563.69
2022-09-20T21:20:26.041Z,101563.78
2022-09-20T21:22:57.539Z,101564.69
2022-09-20T21:25:27.964Z,101561.06
2022-09-20T21:27:59.005Z,101555.84
2022-09-20T21:30:28.944Z,101558.47
2022-09-20T21:32:59.914Z,101554.16
2022-09-20T21:35:29.599Z,101547.13
2022-09-20T21:38:00.143Z,101549.69
2022-09-20T21:40:29.004Z,101554.94
2022-09-20T21:42:57.590Z,101558.41
2022-09-20T21:45:27.564Z,101567.94
2022-09-20T21:47:57.689Z,101561.03
2022-09-20T21:50:27.800Z,101556.78
2022-09-20T21:52:56.404Z,101548.97
2022-09-20T21:55:24.989Z,101551.53
2022-09-20T21:57:53.749Z,101550.69
2022-09-20T22:00:22.499Z,101546.34
2022-09-20T22:02:51.948Z,101555.09
2022-09-20T22:05:22.824Z,101549.91
2022-09-20T22:07:52.289Z,101551.69
2022-09-20T22:10:22.095Z,101536.03
2022-09-20T22:12:51.849Z,101538.63
2022-09-20T22:15:21.081Z,101539.56
2022-09-20T22:17:50.749Z,101545.75
2022-09-20T22:20:19.879Z,101547.44
2022-09-20T22:22:50.158Z,101543.03
2022-09-20T22:25:19.059Z,101550.13
2022-09-20T22:27:49.884Z,101554.34
2022-09-20T22:30:18.784Z,101547.44
2022-09-20T22:32:52.974Z,101550.03
2022-09-20T22:36:03.303Z,101549.25
2022-09-20T22:38:47.654Z,101553.66
2022-09-20T22:41:32.558Z,101564.13
2022-09-20T22:44:17.904Z,101572.06
2022-09-20T22:46:56.988Z,101566.84
2022-09-20T22:49:26.057Z,101573.06
2022-09-20T22:51:54.949Z,101571.38
2022-09-20T22:54:25.064Z,101577.44
2022-09-20T22:56:53.654Z,101574.13
2022-09-20T22:59:24.958Z,101573.34
2022-09-20T23:01:53.610Z,101573.44
2022-09-20T23:04:22.639Z,101576.03
2022-09-20T23:06:55.300Z,101579.50
2022-09-20T23:09:28.421Z,101585.59
2022-09-20T23:11:57.270Z,101576.19
2022-09-20T23:14:25.939Z,101577.94
2022-09-20T23:16:54.620Z,101575.31
2022-09-20T23:19:23.380Z,101575.41
2022-09-20T23:21:52.298Z,101575.44
2022-09-20T23:24:24.909Z,101572.91
2022-09-20T23:26:53.488Z,101571.28
2022-09-20T23:29:22.760Z,101569.50
2022-09-20T23:31:51.709Z,101566.91
2022-09-20T23:34:20.278Z,101562.59
2022-09-20T23:36:50.648Z,101557.34
2022-09-20T23:39:19.369Z,101566.06
2022-09-20T23:41:51.234Z,101554.81
2022-09-20T23:44:20.310Z,101564.41
2022-09-20T23:46:48.941Z,101555.72
2022-09-20T23:49:17.648Z,101547.03
2022-09-20T23:51:46.248Z,101555.81
2022-09-20T23:54:14.868Z,101551.41
2022-09-20T23:56:43.428Z,101552.41
2022-09-20T23:59:13.518Z,101547.94
